createdAt,value
2023-01-06T00:02:00.258Z,38.17
2023-01-06T00:04:29.788Z,37.98
2023-01-06T00:06:59.532Z,38.67
2023-01-06T00:09:29.323Z,40.27
2023-01-06T00:11:58.834Z,39.73
2023-01-06T00:14:28.279Z,39.33
2023-01-06T00:16:57.785Z,38.63
2023-01-06T00:19:27.290Z,42.03
2023-01-06T00:21:56.807Z,45.00
2023-01-06T00:24:26.280Z,42.30
2023-01-06T00:26:55.709Z,44.63
2023-01-06T00:29:25.235Z,44.33
2023-01-06T00:31:55.362Z,41.05
2023-01-06T00:34:24.791Z,49.73
2023-01-06T00:36:54.246Z,45.67
2023-01-06T00:39:24.413Z,46.13
2023-01-06T00:42:06.907Z,43.00
2023-01-06T00:44:39.261Z,48.87
2023-01-06T00:47:11.583Z,50.83
2023-01-06T00:49:41.190Z,46.20
2023-01-06T00:52:10.956Z,45.60
2023-01-06T00:54:41.167Z,39.73
2023-01-06T00:57:11.141Z,43.93
2023-01-06T00:59:42.504Z,42.37
2023-01-06T01:02:12.106Z,37.25
2023-01-06T01:04:41.952Z,39.07
2023-01-06T01:07:12.888Z,40.43
2023-01-06T01:09:42.300Z,36.13
2023-01-06T01:12:13.128Z,34.80
2023-01-06T01:14:48.608Z,37.13
2023-01-06T01:17:21.704Z,35.70
2023-01-06T01:19:55.456Z,34.27
2023-01-06T01:22:27.740Z,37.30
2023-01-06T01:24:57.330Z,33.83
2023-01-06T01:27:26.786Z,31.50
2023-01-06T01:29:56.243Z,34.55
2023-01-06T01:32:25.778Z,33.90
2023-01-06T01:34:55.252Z,33.50
2023-01-06T01:37:24.801Z,29.75
2023-01-06T01:39:54.330Z,31.80
2023-01-06T01:42:23.877Z,29.90
2023-01-06T01:47:48.217Z,29.18
2023-01-06T01:52:50.986Z,33.55
2023-01-06T01:55:21.816Z,30.27
2023-01-06T01:57:57.152Z,36.65
2023-01-06T02:00:27.936Z,35.45
2023-01-06T02:02:59.031Z,31.27
2023-01-06T02:05:31.250Z,31.47
2023-01-06T02:08:04.643Z,32.85
2023-01-06T02:10:34.149Z,26.90
2023-01-06T02:13:04.478Z,25.90
2023-01-06T02:15:35.535Z,26.57
2023-01-06T02:18:20.124Z,32.58
2023-01-06T02:29:14.883Z,24.12
2023-01-06T02:31:56.423Z,26.50
2023-01-06T02:34:48.937Z,25.48
2023-01-06T02:37:42.553Z,26.55
2023-01-06T02:40:21.038Z,28.90
2023-01-06T02:43:13.232Z,26.95
2023-01-06T02:48:18.637Z,31.25
2023-01-06T02:51:04.727Z,29.10
2023-01-06T02:53:46.304Z,30.95
2023-01-06T02:56:16.587Z,28.90
2023-01-06T02:58:51.893Z,34.00
2023-01-06T03:01:28.086Z,28.20
2023-01-06T03:04:00.673Z,33.80
2023-01-06T03:06:32.997Z,27.65
2023-01-06T03:11:36.040Z,32.42
2023-01-06T03:14:26.572Z,34.58
2023-01-06T03:16:57.577Z,25.17
2023-01-06T03:19:28.058Z,32.00
2023-01-06T03:21:59.925Z,28.35
2023-01-06T03:24:30.561Z,21.87
2023-01-06T03:29:30.242Z,22.80
2023-01-06T03:32:06.690Z,25.62
2023-01-06T03:34:54.131Z,23.32
2023-01-06T03:37:28.024Z,25.75
2023-01-06T03:40:25.078Z,23.27
2023-01-06T03:43:13.595Z,21.93
2023-01-06T03:45:59.491Z,22.50
2023-01-06T03:48:58.619Z,24.20
2023-01-06T03:51:46.733Z,23.55
2023-01-06T03:54:35.987Z,29.10
2023-01-06T03:57:09.180Z,24.02
2023-01-06T03:59:45.147Z,23.18
2023-01-06T04:02:16.282Z,21.42
2023-01-06T04:04:45.913Z,24.45
2023-01-06T04:07:15.415Z,21.33
2023-01-06T04:09:46.479Z,20.80
2023-01-06T04:12:33.694Z,21.75
2023-01-06T04:15:03.342Z,25.68
2023-01-06T04:17:33.889Z,19.50
2023-01-06T04:20:04.770Z,23.47
2023-01-06T04:22:35.496Z,20.62
2023-01-06T04:25:07.611Z,19.90
2023-01-06T04:27:38.135Z,21.43
2023-01-06T04:30:08.787Z,17.98
2023-01-06T04:32:40.047Z,20.67
2023-01-06T04:35:11.562Z,19.77
2023-01-06T04:37:41.741Z,20.68
2023-01-06T04:40:12.442Z,18.57
2023-01-06T04:42:59.764Z,20.90
2023-01-06T04:45:30.126Z,19.77
2023-01-06T04:48:00.042Z,19.30
2023-01-06T04:50:29.449Z,16.40
2023-01-06T04:52:59.316Z,17.87
2023-01-06T04:55:28.867Z,20.48
2023-01-06T04:57:58.368Z,20.70
2023-01-06T05:00:27.990Z,18.70
2023-01-06T05:02:57.688Z,15.00
2023-01-06T05:05:27.134Z,20.62
2023-01-06T05:07:57.506Z,17.40
2023-01-06T05:10:26.948Z,24.18
2023-01-06T05:12:56.372Z,20.88
2023-01-06T05:15:26.114Z,18.10
2023-01-06T05:17:55.994Z,17.70
2023-01-06T05:20:25.440Z,18.35
2023-01-06T05:22:54.885Z,15.85
2023-01-06T05:25:24.391Z,19.77
2023-01-06T05:27:53.833Z,14.87
2023-01-06T05:30:23.318Z,15.90
2023-01-06T05:32:52.760Z,16.90
2023-01-06T05:35:22.206Z,16.23
2023-01-06T05:37:51.676Z,16.32
2023-01-06T05:40:21.200Z,16.42
2023-01-06T05:42:52.480Z,17.82
2023-01-06T05:45:22.356Z,17.70
2023-01-06T05:47:52.065Z,14.55
2023-01-06T05:52:52.901Z,16.05
2023-01-06T05:55:22.378Z,18.35
2023-01-06T05:57:51.813Z,16.23
2023-01-06T06:00:21.410Z,17.75
2023-01-06T06:02:51.746Z,14.70
2023-01-06T06:05:21.141Z,13.57
2023-01-06T06:07:57.939Z,19.42
2023-01-06T06:10:27.533Z,15.38
2023-01-06T06:12:56.963Z,16.70
2023-01-06T06:15:26.419Z,14.43
2023-01-06T06:17:55.844Z,17.70
2023-01-06T06:20:27.688Z,16.67
2023-01-06T06:22:57.101Z,14.30
2023-01-06T06:25:27.061Z,14.13
2023-01-06T06:28:00.436Z,12.40
2023-01-06T06:32:58.766Z,17.32
2023-01-06T06:35:28.224Z,18.17
2023-01-06T06:37:57.788Z,21.15
2023-01-06T06:40:27.656Z,19.48
2023-01-06T06:42:57.828Z,15.13
2023-01-06T06:45:27.361Z,13.20
2023-01-06T06:47:57.714Z,15.25
2023-01-06T06:50:27.193Z,14.28
2023-01-06T06:52:57.039Z,14.80
2023-01-06T06:55:26.523Z,15.13
2023-01-06T06:57:56.207Z,14.47
2023-01-06T07:00:26.340Z,17.67
2023-01-06T07:02:55.823Z,16.55
2023-01-06T07:05:26.233Z,14.85
2023-01-06T07:07:55.725Z,12.85
2023-01-06T07:10:25.284Z,15.70
2023-01-06T07:12:55.686Z,14.70
2023-01-06T07:15:25.107Z,16.48
2023-01-06T07:17:54.568Z,20.62
2023-01-06T07:20:24.388Z,14.87
2023-01-06T07:22:53.838Z,13.62
2023-01-06T07:25:25.324Z,16.65
2023-01-06T07:27:56.795Z,14.78
2023-01-06T07:30:29.205Z,13.30
2023-01-06T07:32:58.772Z,15.07
2023-01-06T07:35:28.363Z,16.42
2023-01-06T07:38:06.445Z,16.80
2023-01-06T07:40:37.205Z,16.87
2023-01-06T07:43:10.130Z,15.53
2023-01-06T07:45:39.695Z,13.05
2023-01-06T07:48:10.834Z,16.00
2023-01-06T07:50:40.283Z,20.08
2023-01-06T07:53:11.395Z,19.10
2023-01-06T07:55:43.342Z,19.92
2023-01-06T07:58:12.760Z,16.93
2023-01-06T08:00:42.259Z,14.93
2023-01-06T08:03:13.330Z,16.05
2023-01-06T08:05:44.217Z,16.12
2023-01-06T08:08:13.810Z,13.50
2023-01-06T08:10:44.602Z,16.25
2023-01-06T08:13:14.369Z,19.02
2023-01-06T08:15:43.824Z,14.63
2023-01-06T08:18:14.007Z,15.20
2023-01-06T08:20:44.345Z,14.98
2023-01-06T08:23:13.807Z,17.60
2023-01-06T08:25:43.299Z,14.07
2023-01-06T08:28:13.625Z,15.25
2023-01-06T08:30:44.386Z,18.17
2023-01-06T08:33:15.558Z,16.37
2023-01-06T08:35:46.620Z,20.95
2023-01-06T08:38:16.518Z,23.15
2023-01-06T08:40:46.041Z,20.43
2023-01-06T08:43:15.520Z,22.40
2023-01-06T08:45:45.061Z,17.70
2023-01-06T08:48:14.572Z,20.45
2023-01-06T08:50:44.351Z,25.30
2023-01-06T08:53:15.040Z,13.95
2023-01-06T08:55:45.814Z,16.37
2023-01-06T08:58:15.793Z,14.13
2023-01-06T09:00:45.237Z,23.12
2023-01-06T09:03:14.660Z,19.20
2023-01-06T09:05:44.309Z,16.07
2023-01-06T09:08:13.732Z,18.85
2023-01-06T09:10:43.159Z,18.20
2023-01-06T09:13:12.785Z,14.28
2023-01-06T09:15:45.353Z,15.63
2023-01-06T09:18:15.040Z,15.65
2023-01-06T09:20:44.477Z,22.30
2023-01-06T09:23:14.651Z,14.40
2023-01-06T09:25:44.236Z,16.27
2023-01-06T09:28:14.925Z,22.45
2023-01-06T09:30:47.086Z,24.18
2023-01-06T09:33:17.351Z,20.52
2023-01-06T09:35:47.689Z,20.35
2023-01-06T09:38:18.776Z,20.97
2023-01-06T09:41:03.276Z,25.52
2023-01-06T09:43:35.983Z,18.15
2023-01-06T09:48:40.078Z,20.20
2023-01-06T09:53:43.603Z,24.43
2023-01-06T09:56:16.116Z,23.90
2023-01-06T09:58:48.601Z,21.97
2023-01-06T10:01:22.670Z,20.97
2023-01-06T10:03:52.335Z,18.02
2023-01-06T10:06:37.600Z,18.73
2023-01-06T10:09:28.490Z,17.37
2023-01-06T10:12:07.567Z,17.25
2023-01-06T10:15:13.502Z,15.93
2023-01-06T10:18:04.919Z,19.32
2023-01-06T10:23:35.355Z,16.60
2023-01-06T10:26:13.879Z,20.05
2023-01-06T10:28:48.167Z,18.07
2023-01-06T10:31:20.927Z,20.10
2023-01-06T10:33:54.312Z,20.92
2023-01-06T10:36:35.808Z,22.82
2023-01-06T10:39:07.259Z,16.67
2023-01-06T10:41:42.588Z,15.95
2023-01-06T10:44:14.056Z,18.87
2023-01-06T10:46:45.638Z,16.37
2023-01-06T10:49:21.121Z,15.27
2023-01-06T10:51:53.612Z,18.82
2023-01-06T10:54:28.915Z,18.75
2023-01-06T10:57:02.763Z,19.17
2023-01-06T10:59:32.323Z,14.35
2023-01-06T11:02:02.666Z,12.47
2023-01-06T11:04:32.131Z,14.25
2023-01-06T11:07:04.434Z,18.32
2023-01-06T11:09:39.440Z,19.07
2023-01-06T11:12:14.987Z,13.38
2023-01-06T11:14:47.034Z,14.43
2023-01-06T11:17:17.546Z,19.87
2023-01-06T11:19:49.736Z,16.05
2023-01-06T11:22:36.677Z,13.90
2023-01-06T11:25:09.187Z,17.52
2023-01-06T11:27:38.766Z,12.93
2023-01-06T11:30:29.210Z,16.15
2023-01-06T11:32:59.471Z,12.63
2023-01-06T11:35:32.583Z,13.05
2023-01-06T11:38:02.955Z,14.83
2023-01-06T11:40:35.624Z,21.80
2023-01-06T11:43:10.851Z,21.70
2023-01-06T11:45:52.315Z,13.80
2023-01-06T11:48:25.385Z,13.72
2023-01-06T11:53:25.604Z,19.52
2023-01-06T11:56:04.498Z,15.35
2023-01-06T11:59:02.620Z,20.62
2023-01-06T12:01:40.971Z,15.30
2023-01-06T12:04:30.479Z,18.92
2023-01-06T12:07:06.345Z,18.25
2023-01-06T12:09:38.939Z,17.23
2023-01-06T12:12:10.980Z,17.17
2023-01-06T12:14:41.675Z,13.45
2023-01-06T12:17:28.707Z,18.02
2023-01-06T12:20:07.182Z,15.58
2023-01-06T12:22:39.674Z,17.50
2023-01-06T12:25:15.259Z,21.97
2023-01-06T12:27:50.557Z,17.25
2023-01-06T12:30:58.375Z,20.68
2023-01-06T12:33:36.743Z,22.15
2023-01-06T12:36:09.531Z,20.77
2023-01-06T12:38:52.657Z,27.02
2023-01-06T12:41:37.332Z,20.17
2023-01-06T12:44:26.588Z,17.90
2023-01-06T12:47:16.357Z,16.95
2023-01-06T12:49:48.855Z,17.90
2023-01-06T12:52:29.697Z,17.80
2023-01-06T12:55:01.841Z,15.60
2023-01-06T12:57:43.141Z,17.50
2023-01-06T13:00:39.727Z,18.15
2023-01-06T13:03:29.988Z,16.70
2023-01-06T13:06:14.628Z,18.05
2023-01-06T13:08:47.479Z,19.27
2023-01-06T13:11:37.520Z,16.57
2023-01-06T13:14:15.912Z,18.20
2023-01-06T13:16:50.979Z,17.75
2023-01-06T13:19:46.677Z,15.38
2023-01-06T13:22:25.505Z,12.88
2023-01-06T13:25:13.933Z,10.90
2023-01-06T13:28:01.319Z,8.35
2023-01-06T13:30:39.570Z,11.93
2023-01-06T13:33:46.958Z,12.70
2023-01-06T13:36:37.567Z,11.08
2023-01-06T13:39:16.623Z,17.20
2023-01-06T13:41:49.186Z,13.93
2023-01-06T13:44:21.875Z,15.70
2023-01-06T13:46:54.999Z,15.53
2023-01-06T13:49:25.758Z,10.80
2023-01-06T13:51:55.601Z,15.08
2023-01-06T13:54:46.319Z,11.70
2023-01-06T13:57:25.103Z,17.35
2023-01-06T13:59:56.938Z,12.20
2023-01-06T14:02:43.147Z,18.15
2023-01-06T14:05:26.003Z,16.30
2023-01-06T14:08:02.014Z,13.80
2023-01-06T14:10:39.885Z,13.68
2023-01-06T14:13:24.926Z,14.15
2023-01-06T14:16:04.058Z,14.23
2023-01-06T14:18:37.039Z,14.73
2023-01-06T14:21:09.554Z,14.85
2023-01-06T14:23:41.332Z,10.15
2023-01-06T14:26:14.660Z,7.60
2023-01-06T14:28:43.892Z,8.68
2023-01-06T14:31:34.016Z,10.80
2023-01-06T14:34:05.625Z,9.70
2023-01-06T14:36:36.708Z,7.40
2023-01-06T14:39:09.130Z,11.70
2023-01-06T14:41:48.078Z,14.65
2023-01-06T14:44:24.121Z,11.15
2023-01-06T14:47:05.226Z,15.28
2023-01-06T14:49:37.720Z,11.48
2023-01-06T14:54:41.800Z,13.45
2023-01-06T14:57:14.568Z,13.32
2023-01-06T14:59:44.071Z,17.00
2023-01-06T15:02:17.975Z,12.93
2023-01-06T15:04:49.247Z,16.80
2023-01-06T15:07:22.653Z,16.65
2023-01-06T15:09:53.628Z,16.70
2023-01-06T15:12:34.491Z,14.47
2023-01-06T15:15:28.186Z,18.23
2023-01-06T15:18:00.013Z,13.15
2023-01-06T15:20:32.491Z,13.47
2023-01-06T15:23:03.915Z,14.13
2023-01-06T15:25:36.401Z,16.50
2023-01-06T15:28:06.594Z,13.28
2023-01-06T15:30:36.895Z,17.57
2023-01-06T15:33:08.905Z,16.85
2023-01-06T15:35:39.589Z,15.20
2023-01-06T15:38:26.085Z,16.17
2023-01-06T15:40:55.744Z,14.90
2023-01-06T15:43:28.902Z,16.75
2023-01-06T15:46:04.478Z,15.85
2023-01-06T15:48:36.846Z,11.40
2023-01-06T15:51:17.791Z,15.65
2023-01-06T15:53:50.298Z,12.03
2023-01-06T15:56:25.917Z,14.43
2023-01-06T15:58:58.851Z,12.33
2023-01-06T16:01:28.446Z,16.60
2023-01-06T16:04:01.157Z,16.42
2023-01-06T16:09:23.113Z,14.68
2023-01-06T16:12:07.774Z,14.03
2023-01-06T16:14:41.481Z,19.52
2023-01-06T16:17:17.225Z,18.92
2023-01-06T16:19:54.357Z,24.98
2023-01-06T16:22:27.793Z,19.23
2023-01-06T16:24:57.633Z,22.82
2023-01-06T16:27:27.819Z,19.77
2023-01-06T16:30:15.405Z,25.02
2023-01-06T16:32:46.871Z,17.30
2023-01-06T16:35:19.679Z,18.67
2023-01-06T16:37:49.179Z,18.48
2023-01-06T16:40:21.181Z,20.27
2023-01-06T16:42:53.132Z,24.75
2023-01-06T16:45:31.498Z,25.82
2023-01-06T16:48:02.087Z,20.95
2023-01-06T16:50:37.278Z,18.73
2023-01-06T16:53:19.794Z,22.30
2023-01-06T16:55:55.705Z,16.82
2023-01-06T16:58:27.850Z,19.35
2023-01-06T17:01:01.334Z,16.70
2023-01-06T17:03:33.453Z,20.05
2023-01-06T17:06:04.576Z,18.87
2023-01-06T17:08:37.168Z,18.67
2023-01-06T17:11:18.337Z,17.77
2023-01-06T17:13:53.563Z,20.17
2023-01-06T17:16:30.612Z,24.77
2023-01-06T17:19:05.442Z,24.72
2023-01-06T17:21:37.930Z,26.05
2023-01-06T17:24:13.087Z,28.60
2023-01-06T17:26:45.047Z,29.02
2023-01-06T17:29:17.105Z,22.82
2023-01-06T17:31:51.354Z,22.87
2023-01-06T17:34:25.024Z,21.97
2023-01-06T17:36:57.058Z,25.10
2023-01-06T17:39:29.567Z,21.42
2023-01-06T17:42:02.894Z,22.55
2023-01-06T17:44:45.457Z,19.05
2023-01-06T17:47:21.172Z,26.68
2023-01-06T17:50:00.189Z,22.82
2023-01-06T17:52:33.734Z,22.58
2023-01-06T17:55:29.935Z,21.97
2023-01-06T17:58:01.050Z,18.70
2023-01-06T18:00:35.544Z,19.73
2023-01-06T18:03:18.347Z,18.85
2023-01-06T18:06:02.500Z,16.60
2023-01-06T18:08:35.257Z,16.52
2023-01-06T18:11:37.599Z,22.37
2023-01-06T18:14:03.703Z,16.65
2023-01-06T18:16:36.189Z,20.75
2023-01-06T18:19:32.409Z,15.88
2023-01-06T18:22:03.850Z,19.75
2023-01-06T18:24:42.113Z,17.40
2023-01-06T18:27:29.386Z,23.90
2023-01-06T18:32:38.172Z,20.25
2023-01-06T18:35:16.697Z,26.60
2023-01-06T18:37:46.167Z,20.50
2023-01-06T18:40:19.864Z,24.12
2023-01-06T18:42:51.246Z,21.80
2023-01-06T18:45:26.946Z,18.05
2023-01-06T18:48:02.237Z,19.87
2023-01-06T18:50:52.623Z,18.55
2023-01-06T18:53:33.017Z,20.00
2023-01-06T18:56:05.139Z,30.17
2023-01-06T18:58:44.903Z,34.13
2023-01-06T19:01:23.697Z,30.15
2023-01-06T19:04:06.234Z,31.87
2023-01-06T19:06:41.717Z,29.92
2023-01-06T19:09:16.764Z,34.98
2023-01-06T19:11:48.657Z,38.73
2023-01-06T19:14:20.442Z,41.27
2023-01-06T19:16:56.665Z,46.73
2023-01-06T19:19:43.122Z,48.70
2023-01-06T19:22:22.515Z,50.73
2023-01-06T19:24:54.992Z,46.42
2023-01-06T19:27:27.582Z,51.18
2023-01-06T19:30:00.106Z,52.25
2023-01-06T19:32:33.013Z,56.20
2023-01-06T19:35:02.702Z,58.83
2023-01-06T19:37:33.216Z,51.40
2023-01-06T19:40:03.063Z,56.98
2023-01-06T19:42:32.540Z,56.18
2023-01-06T19:45:06.488Z,52.75
2023-01-06T19:47:39.687Z,53.83
2023-01-06T19:50:15.017Z,54.98
2023-01-06T19:52:44.563Z,60.60
2023-01-06T19:55:20.810Z,54.50
2023-01-06T19:57:56.781Z,59.63
2023-01-06T20:00:29.343Z,59.70
2023-01-06T20:03:03.239Z,68.72
2023-01-06T20:05:33.447Z,76.43
2023-01-06T20:08:02.883Z,71.35
2023-01-06T20:10:32.512Z,63.28
2023-01-06T20:13:02.017Z,64.37
2023-01-06T20:15:31.447Z,64.17
2023-01-06T20:18:00.862Z,64.27
2023-01-06T20:20:30.530Z,66.33
2023-01-06T20:22:59.959Z,59.03
2023-01-06T20:25:29.383Z,69.00
2023-01-06T20:27:59.624Z,75.08
2023-01-06T20:30:29.134Z,72.10
2023-01-06T20:32:59.049Z,76.00
2023-01-06T20:35:28.784Z,71.05
2023-01-06T20:37:58.222Z,71.65
2023-01-06T20:40:27.644Z,70.05
2023-01-06T20:42:57.107Z,73.97
2023-01-06T20:45:26.615Z,65.40
2023-01-06T20:47:56.042Z,63.68
2023-01-06T20:50:27.194Z,69.20
2023-01-06T20:52:56.695Z,68.22
2023-01-06T20:55:27.785Z,61.42
2023-01-06T20:57:57.210Z,66.12
2023-01-06T21:00:26.732Z,72.03
2023-01-06T21:02:56.468Z,66.37
2023-01-06T21:05:26.515Z,64.22
2023-01-06T21:07:56.143Z,65.75
2023-01-06T21:10:25.645Z,67.58
2023-01-06T21:12:56.420Z,68.75
2023-01-06T21:15:26.329Z,70.47
2023-01-06T21:17:56.783Z,62.13
2023-01-06T21:20:26.225Z,67.08
2023-01-06T21:22:55.671Z,64.67
2023-01-06T21:25:25.261Z,68.20
2023-01-06T21:27:54.739Z,74.05
2023-01-06T21:30:24.589Z,67.37
2023-01-06T21:32:55.960Z,77.65
2023-01-06T21:35:25.613Z,76.65
2023-01-06T21:37:55.049Z,74.87
2023-01-06T21:40:24.557Z,70.95
2023-01-06T21:43:09.123Z,68.55
2023-01-06T21:45:44.659Z,75.87
2023-01-06T21:48:15.039Z,72.37
2023-01-06T21:50:45.884Z,76.90
2023-01-06T21:53:16.367Z,78.22
2023-01-06T21:55:45.798Z,68.42
2023-01-06T21:58:15.242Z,87.20
2023-01-06T22:00:44.928Z,92.15
2023-01-06T22:03:14.695Z,96.20
2023-01-06T22:05:45.798Z,92.65
2023-01-06T22:08:15.546Z,88.60
2023-01-06T22:10:46.136Z,90.22
2023-01-06T22:13:18.876Z,90.10
2023-01-06T22:15:48.757Z,92.20
2023-01-06T22:18:19.234Z,87.80
2023-01-06T22:20:48.892Z,84.65
2023-01-06T22:23:21.176Z,85.83
2023-01-06T22:28:21.414Z,83.90
2023-01-06T22:30:52.609Z,83.78
2023-01-06T22:33:22.945Z,79.77
2023-01-06T22:35:52.487Z,74.03
2023-01-06T22:38:21.905Z,76.20
2023-01-06T22:40:51.631Z,77.75
2023-01-06T22:43:21.021Z,73.52
2023-01-06T22:45:55.511Z,87.02
2023-01-06T22:48:25.545Z,78.43
2023-01-06T22:51:02.810Z,74.17
2023-01-06T22:53:34.598Z,74.30
2023-01-06T22:56:07.471Z,77.58
2023-01-06T22:58:39.306Z,79.10
2023-01-06T23:01:10.594Z,78.62
2023-01-06T23:03:40.058Z,75.37
2023-01-06T23:06:12.768Z,74.53
2023-01-06T23:08:59.014Z,67.82
2023-01-06T23:11:19.699Z,69.53
2023-01-06T23:13:49.634Z,69.20
2023-01-06T23:16:22.486Z,74.42
2023-01-06T23:18:52.105Z,70.12
2023-01-06T23:21:24.865Z,69.75
2023-01-06T23:23:55.310Z,74.12
2023-01-06T23:26:27.172Z,71.82
2023-01-06T23:28:59.990Z,68.83
2023-01-06T23:31:35.652Z,64.10
2023-01-06T23:34:08.636Z,62.98
2023-01-06T23:39:10.311Z,52.70
2023-01-06T23:41:40.071Z,63.52
2023-01-06T23:44:11.240Z,56.00
2023-01-06T23:46:43.132Z,49.77
2023-01-06T23:49:16.471Z,57.73
2023-01-06T23:51:46.558Z,53.35
2023-01-06T23:54:16.834Z,49.63
2023-01-06T23:56:46.401Z,50.28
2023-01-06T23:59:17.095Z,50.00
